BAW256 VIDP-EGLL
Flight info
| Callsign | BAW256 |
|---|---|
| Flight time | N/A |
| Altitude | 36000 |
| Route | SURAM7E SURAM G333 MERUN L750 KADVI/N0480F380 L750 RANAH B449 MAMED B450 BIBIM A909 RODAR M11 ERLEV L850 ADEKI DCT BADIR DCT LAGAS DCT FOQUS DCT SARPI/N0482F400 UM10 GOKPA UL746 ODERO DCT LUGEB DCT SOKRU DCT DEGET DCT OGVUN DCT ABETI DCT RENKA DCT INBED DCT BOMBI DCT ADKUV DCT SOGRI DCT DENUT L608 LOGAN LOGAN2H |
| Aircraft | B772/H-SDE1E3FGHIJ3J4J5J6M1M2P2RWXYZ/LB1D1 |
Departure
| Time | N/A |
|---|---|
| Airport | Indira Gandhi International Airport (VIDP) |
Arrival
| Time | 2026-05-07 06:15 |
|---|---|
| Airport | London Heathrow Airport (EGLL) |
| Time | Latitude | Longitude | Altitude | Speed | Heading |
|---|---|---|---|---|---|
| 2026-05-07 05:15 | 50.13609 | 8.46477 | 37946 ft | 471 kts | 288° |
| 2026-05-07 05:16 | 50.15836 | 8.36933 | 37958 ft | 472 kts | 288° |
| 2026-05-07 05:16 | 50.18074 | 8.27316 | 37936 ft | 472 kts | 288° |
| 2026-05-07 05:17 | 50.20305 | 8.17682 | 37962 ft | 471 kts | 287° |
| 2026-05-07 05:17 | 50.22524 | 8.08058 | 37949 ft | 471 kts | 288° |
| 2026-05-07 05:18 | 50.24737 | 7.98409 | 37959 ft | 471 kts | 287° |
| 2026-05-07 05:18 | 50.26942 | 7.88757 | 37958 ft | 471 kts | 287° |
| 2026-05-07 05:19 | 50.29125 | 7.79151 | 37957 ft | 471 kts | 287° |
| 2026-05-07 05:19 | 50.31312 | 7.69488 | 37956 ft | 471 kts | 287° |
| 2026-05-07 05:20 | 50.33487 | 7.59835 | 37966 ft | 470 kts | 287° |
| 2026-05-07 05:20 | 50.35652 | 7.50180 | 37956 ft | 470 kts | 287° |
| 2026-05-07 05:21 | 50.38892 | 7.35647 | 37959 ft | 470 kts | 287° |
| 2026-05-07 05:22 | 50.41024 | 7.26025 | 37959 ft | 470 kts | 287° |
| 2026-05-07 05:22 | 50.43162 | 7.16337 | 37951 ft | 470 kts | 287° |
| 2026-05-07 05:23 | 50.45289 | 7.06653 | 37956 ft | 470 kts | 287° |
| 2026-05-07 05:23 | 50.47407 | 6.96957 | 37963 ft | 470 kts | 287° |
| 2026-05-07 05:24 | 50.49523 | 6.87238 | 37965 ft | 470 kts | 287° |
| 2026-05-07 05:24 | 50.51529 | 6.77461 | 37975 ft | 469 kts | 284° |
| 2026-05-07 05:25 | 50.53272 | 6.67559 | 37982 ft | 469 kts | 283° |
| 2026-05-07 05:25 | 50.54958 | 6.57720 | 37988 ft | 469 kts | 283° |
| 2026-05-07 05:26 | 50.56671 | 6.47801 | 37989 ft | 470 kts | 284° |
| 2026-05-07 05:26 | 50.58390 | 6.37880 | 37986 ft | 470 kts | 284° |
| 2026-05-07 05:27 | 50.60109 | 6.27929 | 37990 ft | 470 kts | 283° |
| 2026-05-07 05:27 | 50.61816 | 6.17984 | 37992 ft | 470 kts | 283° |
| 2026-05-07 05:28 | 50.63515 | 6.08026 | 37996 ft | 470 kts | 283° |
| 2026-05-07 05:28 | 50.65204 | 5.98066 | 37998 ft | 470 kts | 283° |
| 2026-05-07 05:29 | 50.66875 | 5.88152 | 37999 ft | 470 kts | 283° |
| 2026-05-07 05:29 | 50.68549 | 5.78174 | 38014 ft | 470 kts | 283° |
| 2026-05-07 05:30 | 50.70213 | 5.68186 | 38015 ft | 470 kts | 283° |
| 2026-05-07 05:30 | 50.71855 | 5.58280 | 38020 ft | 470 kts | 283° |
| 2026-05-07 05:31 | 50.73501 | 5.48287 | 38023 ft | 470 kts | 283° |
| 2026-05-07 05:31 | 50.75137 | 5.38296 | 38020 ft | 470 kts | 283° |
| 2026-05-07 05:32 | 50.76766 | 5.28287 | 38028 ft | 470 kts | 283° |
| 2026-05-07 05:32 | 50.78386 | 5.18283 | 38016 ft | 470 kts | 283° |
| 2026-05-07 05:33 | 50.80001 | 5.08330 | 38017 ft | 470 kts | 285° |
| 2026-05-07 05:33 | 50.82337 | 4.98692 | 38022 ft | 471 kts | 295° |
| 2026-05-07 05:34 | 50.85309 | 4.89429 | 38020 ft | 472 kts | 296° |
| 2026-05-07 05:34 | 50.88293 | 4.80183 | 38023 ft | 471 kts | 295° |
| 2026-05-07 05:35 | 50.91241 | 4.70902 | 38026 ft | 471 kts | 295° |
| 2026-05-07 05:35 | 50.94157 | 4.61619 | 38021 ft | 469 kts | 295° |
| 2026-05-07 05:36 | 50.97036 | 4.52409 | 38020 ft | 467 kts | 295° |
| 2026-05-07 05:36 | 50.99914 | 4.43169 | 38023 ft | 466 kts | 295° |
| 2026-05-07 05:37 | 51.02780 | 4.33938 | 38031 ft | 466 kts | 295° |
| 2026-05-07 05:37 | 51.05641 | 4.24686 | 38044 ft | 466 kts | 295° |
| 2026-05-07 05:38 | 51.08492 | 4.15435 | 38023 ft | 466 kts | 295° |
| 2026-05-07 05:38 | 51.11319 | 4.06223 | 38034 ft | 466 kts | 295° |
| 2026-05-07 05:39 | 51.14159 | 3.96938 | 38036 ft | 466 kts | 295° |
| 2026-05-07 05:39 | 51.16990 | 3.87643 | 38012 ft | 466 kts | 295° |
| 2026-05-07 05:40 | 51.19813 | 3.78339 | 38017 ft | 466 kts | 295° |
| 2026-05-07 05:40 | 51.22626 | 3.69038 | 38027 ft | 465 kts | 295° |
| 2026-05-07 05:41 | 51.25701 | 3.59942 | 38036 ft | 465 kts | 300° |
| 2026-05-07 05:41 | 51.29043 | 3.51073 | 38033 ft | 465 kts | 300° |
| 2026-05-07 05:42 | 51.32330 | 3.42233 | 38022 ft | 465 kts | 299° |
| 2026-05-07 05:42 | 51.35421 | 3.33142 | 38022 ft | 464 kts | 292° |
| 2026-05-07 05:43 | 51.37715 | 3.23472 | 38028 ft | 464 kts | 289° |
| 2026-05-07 05:43 | 51.39965 | 3.13780 | 38049 ft | 464 kts | 290° |
| 2026-05-07 05:44 | 51.42258 | 3.04085 | 38041 ft | 465 kts | 290° |
| 2026-05-07 05:44 | 51.44516 | 2.94453 | 38039 ft | 465 kts | 290° |
| 2026-05-07 05:45 | 51.46783 | 2.84730 | 37921 ft | 466 kts | 290° |
| 2026-05-07 05:45 | 51.47920 | 2.79840 | 37428 ft | 467 kts | 290° |
| 2026-05-07 05:45 | 51.49049 | 2.74970 | 36980 ft | 461 kts | 290° |
| 2026-05-07 05:45 | 51.50158 | 2.70181 | 36527 ft | 455 kts | 290° |
| 2026-05-07 05:46 | 51.51250 | 2.65452 | 36088 ft | 449 kts | 290° |
| 2026-05-07 05:46 | 51.52327 | 2.60778 | 35652 ft | 444 kts | 290° |
| 2026-05-07 05:46 | 51.53393 | 2.56145 | 35193 ft | 440 kts | 290° |
| 2026-05-07 05:46 | 51.54447 | 2.51550 | 34745 ft | 436 kts | 290° |
| 2026-05-07 05:47 | 51.55473 | 2.47059 | 34305 ft | 432 kts | 289° |
| 2026-05-07 05:47 | 51.56498 | 2.42545 | 33816 ft | 428 kts | 289° |
| 2026-05-07 05:47 | 51.57514 | 2.38061 | 33302 ft | 424 kts | 289° |
| 2026-05-07 05:47 | 51.58518 | 2.33625 | 32849 ft | 420 kts | 289° |
| 2026-05-07 05:48 | 51.59518 | 2.29232 | 32404 ft | 415 kts | 289° |
| 2026-05-07 05:48 | 51.60506 | 2.24895 | 31949 ft | 411 kts | 289° |
| 2026-05-07 05:48 | 51.61483 | 2.20601 | 31519 ft | 407 kts | 289° |
| 2026-05-07 05:48 | 51.62449 | 2.16342 | 31091 ft | 403 kts | 289° |
| 2026-05-07 05:49 | 51.63404 | 2.12121 | 30666 ft | 399 kts | 289° |
| 2026-05-07 05:49 | 51.64348 | 2.07943 | 30247 ft | 395 kts | 289° |
| 2026-05-07 05:49 | 51.65283 | 2.03800 | 29763 ft | 392 kts | 289° |
| 2026-05-07 05:49 | 51.66199 | 1.99736 | 29292 ft | 389 kts | 289° |
| 2026-05-07 05:50 | 51.67121 | 1.95640 | 28837 ft | 385 kts | 289° |
| 2026-05-07 05:50 | 51.68029 | 1.91597 | 28395 ft | 382 kts | 289° |
| 2026-05-07 05:50 | 51.68931 | 1.87577 | 27942 ft | 380 kts | 289° |
| 2026-05-07 05:50 | 51.69823 | 1.83589 | 27495 ft | 377 kts | 289° |
| 2026-05-07 05:51 | 51.70700 | 1.79661 | 27053 ft | 375 kts | 289° |
| 2026-05-07 05:51 | 51.71580 | 1.75714 | 26614 ft | 373 kts | 289° |
| 2026-05-07 05:51 | 51.72457 | 1.71776 | 26184 ft | 372 kts | 289° |
| 2026-05-07 05:51 | 51.73327 | 1.67856 | 25750 ft | 370 kts | 289° |
| 2026-05-07 05:52 | 51.74190 | 1.63962 | 25324 ft | 367 kts | 289° |
| 2026-05-07 05:52 | 51.74730 | 1.59978 | 25069 ft | 362 kts | 272° |
| 2026-05-07 05:52 | 51.74577 | 1.55965 | 25066 ft | 360 kts | 264° |
| 2026-05-07 05:52 | 51.74294 | 1.51891 | 25067 ft | 368 kts | 264° |
| 2026-05-07 05:53 | 51.73995 | 1.47779 | 24991 ft | 370 kts | 264° |
| 2026-05-07 05:53 | 51.73699 | 1.43668 | 24694 ft | 367 kts | 264° |
| 2026-05-07 05:53 | 51.73412 | 1.39564 | 23963 ft | 373 kts | 264° |
| 2026-05-07 05:53 | 51.73123 | 1.35335 | 22855 ft | 385 kts | 264° |
| 2026-05-07 05:54 | 51.72832 | 1.31004 | 22018 ft | 389 kts | 264° |
| 2026-05-07 05:54 | 51.72542 | 1.26679 | 21372 ft | 387 kts | 264° |
| 2026-05-07 05:54 | 51.72256 | 1.22416 | 20742 ft | 385 kts | 264° |
| 2026-05-07 05:54 | 51.71968 | 1.18131 | 20152 ft | 383 kts | 264° |
| 2026-05-07 05:55 | 51.71681 | 1.13879 | 19572 ft | 380 kts | 264° |
| 2026-05-07 05:55 | 51.71393 | 1.09654 | 19033 ft | 377 kts | 264° |
| 2026-05-07 05:55 | 51.71107 | 1.05459 | 18507 ft | 374 kts | 264° |
| 2026-05-07 05:55 | 51.70822 | 1.01296 | 17890 ft | 372 kts | 264° |
| 2026-05-07 05:56 | 51.70536 | 0.97160 | 17297 ft | 370 kts | 264° |
| 2026-05-07 05:56 | 51.70249 | 0.93041 | 16640 ft | 369 kts | 264° |
| 2026-05-07 05:56 | 51.69964 | 0.88939 | 16015 ft | 368 kts | 264° |
| 2026-05-07 05:56 | 51.69678 | 0.84839 | 15392 ft | 368 kts | 264° |
| 2026-05-07 05:57 | 51.69393 | 0.80763 | 14872 ft | 364 kts | 264° |
| 2026-05-07 05:57 | 51.69110 | 0.76715 | 14359 ft | 361 kts | 264° |
| 2026-05-07 05:57 | 51.68830 | 0.72759 | 13842 ft | 358 kts | 264° |
| 2026-05-07 05:57 | 51.68547 | 0.68776 | 13255 ft | 356 kts | 264° |
| 2026-05-07 05:58 | 51.68265 | 0.64828 | 12694 ft | 353 kts | 264° |
| 2026-05-07 05:58 | 51.67983 | 0.60908 | 12140 ft | 351 kts | 264° |
| 2026-05-07 05:58 | 51.67703 | 0.57012 | 11601 ft | 348 kts | 264° |
| 2026-05-07 05:58 | 51.67423 | 0.53152 | 11068 ft | 346 kts | 264° |
| 2026-05-07 05:59 | 51.67145 | 0.49322 | 10543 ft | 343 kts | 264° |
| 2026-05-07 05:59 | 51.66865 | 0.45508 | 10026 ft | 341 kts | 264° |
| 2026-05-07 05:59 | 51.66588 | 0.41745 | 9685 ft | 333 kts | 264° |
| 2026-05-07 05:59 | 51.66324 | 0.38176 | 9575 ft | 318 kts | 264° |
| 2026-05-07 06:00 | 51.66068 | 0.34719 | 9468 ft | 304 kts | 264° |
| 2026-05-07 06:00 | 51.65822 | 0.31409 | 9355 ft | 292 kts | 263° |
| 2026-05-07 06:00 | 51.65583 | 0.28210 | 9152 ft | 283 kts | 263° |
| 2026-05-07 06:00 | 51.65352 | 0.25099 | 8891 ft | 277 kts | 263° |
| 2026-05-07 06:01 | 51.65121 | 0.22019 | 8489 ft | 277 kts | 263° |
| 2026-05-07 06:01 | 51.64967 | 0.19973 | 8290 ft | 276 kts | 262° |
| 2026-05-07 06:01 | 51.64737 | 0.16936 | 8174 ft | 270 kts | 262° |
| 2026-05-07 06:01 | 51.64523 | 0.13934 | 8115 ft | 273 kts | 264° |
| 2026-05-07 06:02 | 51.64387 | 0.10868 | 8081 ft | 276 kts | 265° |
| 2026-05-07 06:02 | 51.64268 | 0.07769 | 8081 ft | 277 kts | 266° |
| 2026-05-07 06:02 | 51.64154 | 0.04673 | 8071 ft | 276 kts | 266° |
| 2026-05-07 06:02 | 51.64043 | 0.01590 | 8061 ft | 275 kts | 266° |
| 2026-05-07 06:03 | 51.63935 | -0.01478 | 8057 ft | 274 kts | 266° |
| 2026-05-07 06:03 | 51.63826 | -0.04550 | 8075 ft | 274 kts | 266° |
| 2026-05-07 06:03 | 51.63717 | -0.07616 | 8073 ft | 274 kts | 266° |
| 2026-05-07 06:03 | 51.63605 | -0.10687 | 8075 ft | 275 kts | 266° |
| 2026-05-07 06:04 | 51.63493 | -0.13731 | 8005 ft | 278 kts | 266° |
| 2026-05-07 06:04 | 51.63378 | -0.16840 | 7881 ft | 278 kts | 266° |
| 2026-05-07 06:04 | 51.63262 | -0.19933 | 7748 ft | 276 kts | 266° |
| 2026-05-07 06:04 | 51.63146 | -0.23003 | 7625 ft | 274 kts | 266° |
| 2026-05-07 06:05 | 51.63030 | -0.26061 | 7506 ft | 273 kts | 266° |
| 2026-05-07 06:05 | 51.62914 | -0.29102 | 7371 ft | 272 kts | 266° |
| 2026-05-07 06:05 | 51.62798 | -0.32146 | 7244 ft | 272 kts | 266° |
| 2026-05-07 06:05 | 51.62681 | -0.35174 | 7163 ft | 271 kts | 266° |
| 2026-05-07 06:06 | 51.62561 | -0.38207 | 7116 ft | 272 kts | 266° |
| 2026-05-07 06:06 | 51.62441 | -0.41218 | 7075 ft | 264 kts | 266° |
| 2026-05-07 06:06 | 51.62324 | -0.44101 | 7053 ft | 250 kts | 266° |
| 2026-05-07 06:06 | 51.62212 | -0.46831 | 7061 ft | 241 kts | 266° |
| 2026-05-07 06:07 | 51.62098 | -0.49505 | 7067 ft | 239 kts | 266° |
| 2026-05-07 06:07 | 51.61984 | -0.52138 | 7068 ft | 238 kts | 266° |
| 2026-05-07 06:07 | 51.61866 | -0.54804 | 7081 ft | 239 kts | 266° |
| 2026-05-07 06:07 | 51.61746 | -0.57476 | 7078 ft | 240 kts | 266° |
| 2026-05-07 06:08 | 51.61623 | -0.60162 | 6949 ft | 243 kts | 266° |
| 2026-05-07 06:08 | 51.61497 | -0.62867 | 6696 ft | 242 kts | 266° |
| 2026-05-07 06:08 | 51.61369 | -0.65557 | 6443 ft | 239 kts | 266° |
| 2026-05-07 06:08 | 51.61241 | -0.68216 | 6174 ft | 237 kts | 266° |
| 2026-05-07 06:09 | 51.61112 | -0.70848 | 5900 ft | 235 kts | 265° |
| 2026-05-07 06:09 | 51.60846 | -0.73403 | 5609 ft | 230 kts | 248° |
| 2026-05-07 06:09 | 51.59878 | -0.75404 | 5352 ft | 229 kts | 214° |
| 2026-05-07 06:09 | 51.58406 | -0.76253 | 5082 ft | 224 kts | 187° |
| 2026-05-07 06:10 | 51.56855 | -0.76378 | 4842 ft | 222 kts | 181° |
| 2026-05-07 06:10 | 51.55305 | -0.76402 | 4514 ft | 223 kts | 181° |
| 2026-05-07 06:10 | 51.53759 | -0.76381 | 4206 ft | 219 kts | 174° |
| 2026-05-07 06:10 | 51.52412 | -0.75471 | 4014 ft | 209 kts | 138° |
| 2026-05-07 06:11 | 51.51489 | -0.73739 | 3940 ft | 198 kts | 127° |
| 2026-05-07 06:11 | 51.50691 | -0.71985 | 3684 ft | 196 kts | 126° |
| 2026-05-07 06:11 | 51.49893 | -0.70216 | 3397 ft | 196 kts | 126° |
| 2026-05-07 06:11 | 51.49104 | -0.68459 | 2976 ft | 190 kts | 126° |
| 2026-05-07 06:12 | 51.48346 | -0.66774 | 2586 ft | 182 kts | 124° |
| 2026-05-07 06:12 | 51.47888 | -0.64928 | 2191 ft | 179 kts | 94° |
| 2026-05-07 06:12 | 51.47797 | -0.62996 | 1978 ft | 170 kts | 96° |
| 2026-05-07 06:12 | 51.47716 | -0.61130 | 1721 ft | 164 kts | 92° |
| 2026-05-07 06:13 | 51.47709 | -0.59347 | 1508 ft | 156 kts | 90° |
| 2026-05-07 06:13 | 51.47715 | -0.57677 | 1287 ft | 143 kts | 90° |
| 2026-05-07 06:13 | 51.47721 | -0.56136 | 1097 ft | 135 kts | 90° |
| 2026-05-07 06:13 | 51.47726 | -0.54627 | 884 ft | 136 kts | 89° |
| 2026-05-07 06:14 | 51.47731 | -0.53107 | 710 ft | 137 kts | 89° |
| 2026-05-07 06:14 | 51.47734 | -0.51584 | 521 ft | 137 kts | 89° |
| 2026-05-07 06:14 | 51.47737 | -0.50083 | 320 ft | 136 kts | 89° |
| 2026-05-07 06:14 | 51.47746 | -0.48576 | 155 ft | 135 kts | 88° |
| 2026-05-07 06:15 | 51.47757 | -0.47098 | 95 ft | 121 kts | 91° |
| 2026-05-07 06:15 | 51.47760 | -0.45980 | 93 ft | 80 kts | 90° |
| 2026-05-07 06:15 | 51.47762 | -0.45377 | 91 ft | 26 kts | 90° |
| 2026-05-07 06:15 | 51.47710 | -0.45188 | 95 ft | 19 kts | 158° |
| 2026-05-07 06:16 | 51.47612 | -0.45208 | 96 ft | 13 kts | 223° |
| 2026-05-07 06:16 | 51.47596 | -0.45351 | 95 ft | 13 kts | 268° |
| 2026-05-07 06:16 | 51.47594 | -0.45499 | 94 ft | 13 kts | 272° |
| 2026-05-07 06:16 | 51.47596 | -0.45647 | 95 ft | 13 kts | 269° |
| 2026-05-07 06:17 | 51.47594 | -0.45795 | 94 ft | 13 kts | 270° |
| 2026-05-07 06:17 | 51.47594 | -0.45943 | 94 ft | 13 kts | 270° |
| 2026-05-07 06:17 | 51.47593 | -0.46091 | 94 ft | 13 kts | 270° |
| 2026-05-07 06:17 | 51.47593 | -0.46239 | 94 ft | 13 kts | 270° |
| 2026-05-07 06:18 | 51.47592 | -0.46388 | 91 ft | 14 kts | 270° |
| 2026-05-07 06:18 | 51.47592 | -0.46551 | 91 ft | 14 kts | 270° |
| 2026-05-07 06:18 | 51.47591 | -0.46710 | 91 ft | 14 kts | 270° |
| 2026-05-07 06:18 | 51.47583 | -0.46871 | 95 ft | 14 kts | 263° |
| 2026-05-07 06:19 | 51.47581 | -0.47032 | 95 ft | 14 kts | 269° |
| 2026-05-07 06:19 | 51.47580 | -0.47194 | 94 ft | 14 kts | 270° |
| 2026-05-07 06:19 | 51.47581 | -0.47355 | 94 ft | 14 kts | 270° |
| 2026-05-07 06:19 | 51.47581 | -0.47517 | 95 ft | 14 kts | 270° |
| 2026-05-07 06:20 | 51.47581 | -0.47678 | 94 ft | 14 kts | 269° |
| 2026-05-07 06:20 | 51.47576 | -0.47824 | 94 ft | 11 kts | 254° |
| 2026-05-07 06:20 | 51.47511 | -0.47884 | 92 ft | 11 kts | 208° |
| 2026-05-07 06:20 | 51.47489 | -0.48003 | 94 ft | 12 kts | 269° |
| 2026-05-07 06:21 | 51.47488 | -0.48143 | 94 ft | 13 kts | 269° |
| 2026-05-07 06:21 | 51.47488 | -0.48288 | 94 ft | 12 kts | 270° |
| 2026-05-07 06:21 | 51.47438 | -0.48358 | 94 ft | 11 kts | 181° |
| 2026-05-07 06:21 | 51.47363 | -0.48362 | 91 ft | 11 kts | 181° |
| 2026-05-07 06:22 | 51.47288 | -0.48362 | 92 ft | 11 kts | 178° |
| 2026-05-07 06:22 | 51.47146 | -0.48358 | 94 ft | 6 kts | 180° |
| 2026-05-07 06:22 | 51.47120 | -0.48325 | 95 ft | 4 kts | 107° |
| 2026-05-07 06:23 | 51.47116 | -0.48278 | 92 ft | 4 kts | 95° |
| 2026-05-07 06:23 | 51.47115 | -0.48246 | 93 ft | 1 kts | 92° |
| 2026-05-07 06:23 | 51.47115 | -0.48244 | 93 ft | 0 kts | 92° |